createdAt,value
2022-09-01T00:00:53.286Z,102150.94
2022-09-01T00:05:57.568Z,102146.41
2022-09-01T00:11:00.717Z,102147.13
2022-09-01T00:16:04.381Z,102139.03
2022-09-01T00:21:08.950Z,102145.06
2022-09-01T00:26:12.502Z,102136.06
2022-09-01T00:31:16.443Z,102134.97
2022-09-01T00:36:22.028Z,102134.75
2022-09-01T00:41:32.070Z,102130.06
2022-09-01T00:46:43.218Z,102117.28
2022-09-01T00:51:56.540Z,102125.38
2022-09-01T00:57:00.616Z,102115.28
2022-09-01T01:02:03.672Z,102121.38
2022-09-01T01:07:09.520Z,102110.50
2022-09-01T01:12:18.420Z,102111.28
2022-09-01T01:17:23.926Z,102118.03
2022-09-01T01:22:55.776Z,102118.59
2022-09-01T01:28:10.150Z,102094.13
2022-09-01T01:33:13.247Z,102113.75
2022-09-01T01:38:16.437Z,102118.84
2022-09-01T01:43:21.960Z,102114.19
2022-09-01T01:48:25.962Z,102114.03
2022-09-01T01:53:30.096Z,102110.31
2022-09-01T01:58:35.967Z,102120.75
2022-09-01T02:03:44.392Z,102120.63
2022-09-01T02:08:47.529Z,102117.88
2022-09-01T02:13:54.438Z,102116.03
2022-09-01T02:18:57.958Z,102105.38
2022-09-01T02:24:03.552Z,102122.22
2022-09-01T02:29:18.192Z,102106.44
2022-09-01T02:34:24.379Z,102110.94
2022-09-01T02:39:32.702Z,102103.91
2022-09-01T02:44:41.209Z,102098.44
2022-09-01T02:49:44.987Z,102104.59
2022-09-01T02:54:49.004Z,102101.91
2022-09-01T02:59:53.309Z,102105.59
2022-09-01T03:04:57.575Z,102093.16
2022-09-01T03:10:03.394Z,102092.06
2022-09-01T03:15:09.074Z,102086.00
2022-09-01T03:20:16.824Z,102085.13
2022-09-01T03:25:21.430Z,102084.28
2022-09-01T03:30:27.031Z,102090.22
2022-09-01T03:35:31.960Z,102085.78
2022-09-01T03:40:37.785Z,102080.38
2022-09-01T03:45:42.875Z,102081.13
2022-09-01T03:50:47.440Z,102072.94
2022-09-01T03:55:52.437Z,102085.13
2022-09-01T04:01:00.762Z,102091.03
2022-09-01T04:06:04.439Z,102081.97
2022-09-01T04:11:16.630Z,102064.59
2022-09-01T04:16:42.957Z,102066.19
2022-09-01T04:21:46.775Z,102087.47
2022-09-01T04:26:51.003Z,102081.94
2022-09-01T04:32:02.138Z,102088.81
2022-09-01T04:37:10.220Z,102087.84
2022-09-01T04:42:14.152Z,102085.06
2022-09-01T04:47:36.269Z,102080.38
2022-09-01T04:52:43.814Z,102083.84
2022-09-01T04:57:55.894Z,102085.59
2022-09-01T05:03:04.691Z,102091.72
2022-09-01T05:08:32.762Z,102089.94
2022-09-01T05:13:40.321Z,102087.41
2022-09-01T05:18:47.577Z,102088.19
2022-09-01T05:23:51.945Z,102085.47
2022-09-01T05:28:58.738Z,102093.28
2022-09-01T05:34:05.340Z,102085.19
2022-09-01T05:39:10.389Z,102094.88
2022-09-01T05:44:14.196Z,102095.09
2022-09-01T05:49:18.963Z,102095.59
2022-09-01T05:54:27.546Z,102095.22
2022-09-01T05:59:32.714Z,102096.81
2022-09-01T06:04:47.187Z,102103.09
2022-09-01T06:09:57.081Z,102093.28
2022-09-01T06:15:00.161Z,102102.31
2022-09-01T06:20:10.680Z,102100.75
2022-09-01T06:25:17.428Z,102099.88
2022-09-01T06:30:26.571Z,102111.53
2022-09-01T06:35:40.566Z,102104.66
2022-09-01T06:40:43.838Z,102096.75
2022-09-01T06:45:55.290Z,102105.94
2022-09-01T06:51:20.879Z,102114.97
2022-09-01T06:56:32.177Z,102117.09
2022-09-01T07:01:36.335Z,102127.09
2022-09-01T07:12:25.934Z,102117.19
2022-09-01T07:17:30.744Z,102114.94
2022-09-01T07:22:37.236Z,102122.44
2022-09-01T07:27:50.494Z,102118.41
2022-09-01T07:32:56.133Z,102118.78
2022-09-01T07:38:47.799Z,102121.91
2022-09-01T07:43:32.612Z,102127.72
2022-09-01T07:49:29.564Z,102124.66
2022-09-01T07:54:25.211Z,102134.38
2022-09-01T07:59:29.941Z,102132.34
2022-09-01T08:04:41.094Z,102126.06
2022-09-01T08:09:45.801Z,102123.44
2022-09-01T08:15:12.681Z,102125.09
2022-09-01T08:20:17.051Z,102121.53
2022-09-01T08:25:37.992Z,102117.94
2022-09-01T08:30:49.054Z,102116.81
2022-09-01T08:35:57.369Z,102117.38
2022-09-01T08:41:04.529Z,102110.75
2022-09-01T08:46:18.225Z,102121.06
2022-09-01T08:51:27.441Z,102112.47
2022-09-01T08:56:37.684Z,102100.41
2022-09-01T09:01:48.094Z,102110.47
2022-09-01T09:07:03.573Z,102114.22
2022-09-01T09:12:19.847Z,102101.88
2022-09-01T09:17:30.573Z,102093.88
2022-09-01T09:22:34.249Z,102091.22
2022-09-01T09:27:40.522Z,102084.94
2022-09-01T09:33:19.929Z,102083.06
2022-09-01T09:38:23.995Z,102084.75
2022-09-01T09:43:31.639Z,102080.19
2022-09-01T09:48:35.269Z,102078.28
2022-09-01T09:53:38.245Z,102080.84
2022-09-01T09:58:46.579Z,102067.25
2022-09-01T10:03:52.246Z,102049.94
2022-09-01T10:08:55.340Z,102052.50
2022-09-01T10:14:00.155Z,102045.88
2022-09-01T10:19:03.465Z,102053.75
2022-09-01T10:24:20.559Z,102046.25
2022-09-01T10:29:35.599Z,102053.13
2022-09-01T10:34:50.866Z,102047.19
2022-09-01T10:40:20.174Z,102042.50
2022-09-01T10:45:35.179Z,102028.34
2022-09-01T10:50:39.199Z,102033.78
2022-09-01T10:55:46.398Z,102030.69
2022-09-01T11:01:11.047Z,102043.81
2022-09-01T11:12:34.024Z,102033.38
2022-09-01T11:17:41.480Z,102029.22
2022-09-01T11:22:47.755Z,102041.38
2022-09-01T11:28:03.606Z,102033.06
2022-09-01T11:33:22.549Z,102029.03
2022-09-01T11:38:29.717Z,102023.81
2022-09-01T11:43:32.789Z,102016.22
2022-09-01T11:48:37.846Z,102007.97
2022-09-01T11:53:40.821Z,102009.56
2022-09-01T11:58:46.642Z,102000.50
2022-09-01T12:03:53.200Z,101995.75
2022-09-01T12:08:59.220Z,101996.38
2022-09-01T12:14:07.657Z,101993.47
2022-09-01T12:19:27.068Z,101980.09
2022-09-01T12:24:34.673Z,101981.19
2022-09-01T12:29:39.059Z,101982.97
2022-09-01T12:34:45.369Z,101964.13
2022-09-01T12:39:50.207Z,101972.78
2022-09-01T12:44:55.713Z,101961.00
2022-09-01T12:50:03.423Z,101965.84
2022-09-01T13:00:56.539Z,101960.91
2022-09-01T13:06:02.743Z,101952.72
2022-09-01T13:11:08.349Z,101947.13
2022-09-01T13:16:13.121Z,101946.06
2022-09-01T13:21:18.120Z,101937.25
2022-09-01T13:26:21.123Z,101939.00
2022-09-01T13:31:32.211Z,101936.84
2022-09-01T13:36:47.137Z,101927.41
2022-09-01T13:41:52.951Z,101934.94
2022-09-01T13:46:59.545Z,101923.88
2022-09-01T13:52:04.512Z,101916.22
2022-09-01T13:57:07.679Z,101922.13
2022-09-01T14:02:12.113Z,101912.94
2022-09-01T14:07:18.940Z,101909.13
2022-09-01T14:12:21.973Z,101906.94
2022-09-01T14:17:25.089Z,101907.38
2022-09-01T14:22:30.001Z,101894.03
2022-09-01T14:27:32.945Z,101903.16
2022-09-01T14:32:36.880Z,101891.38
2022-09-01T14:37:42.122Z,101877.13
2022-09-01T14:42:49.415Z,101873.66
2022-09-01T14:47:54.977Z,101871.78
2022-09-01T14:53:00.629Z,101864.63
2022-09-01T14:58:06.152Z,101856.50
2022-09-01T15:03:09.771Z,101850.50
2022-09-01T15:08:17.585Z,101855.09
2022-09-01T15:13:20.980Z,101853.44
2022-09-01T15:18:24.120Z,101843.69
2022-09-01T15:23:31.305Z,101842.06
2022-09-01T15:28:34.271Z,101844.78
2022-09-01T15:33:38.395Z,101835.66
2022-09-01T15:38:43.214Z,101830.47
2022-09-01T15:43:46.234Z,101826.22
2022-09-01T15:48:50.612Z,101826.13
2022-09-01T15:53:58.233Z,101817.41
2022-09-01T15:59:02.402Z,101824.63
2022-09-01T16:04:07.378Z,101818.09
2022-09-01T16:09:12.475Z,101807.28
2022-09-01T16:14:16.179Z,101797.34
2022-09-01T16:19:28.426Z,101802.84
2022-09-01T16:24:39.253Z,101800.06
2022-09-01T16:29:47.829Z,101789.56
2022-09-01T16:34:52.393Z,101785.31
2022-09-01T16:40:05.785Z,101783.53
2022-09-01T16:45:19.083Z,101780.19
2022-09-01T16:50:31.444Z,101776.03
2022-09-01T16:55:42.494Z,101775.28
2022-09-01T17:00:54.582Z,101770.78
2022-09-01T17:06:13.090Z,101767.44
2022-09-01T17:11:27.503Z,101764.13
2022-09-01T17:16:37.272Z,101767.75
2022-09-01T17:21:49.077Z,101772.94
2022-09-01T17:26:56.739Z,101768.94
2022-09-01T17:32:05.989Z,101764.31
2022-09-01T17:37:20.606Z,101764.28
2022-09-01T17:42:33.660Z,101770.31
2022-09-01T17:47:46.984Z,101769.19
2022-09-01T17:53:00.437Z,101776.31
2022-09-01T17:58:17.181Z,101764.41
2022-09-01T18:03:33.161Z,101767.84
2022-09-01T18:08:41.926Z,101757.50
2022-09-01T18:13:53.640Z,101766.91
2022-09-01T18:19:03.737Z,101761.06
2022-09-01T18:24:16.171Z,101773.94
2022-09-01T18:29:23.154Z,101776.06
2022-09-01T18:34:37.508Z,101774.59
2022-09-01T18:39:50.877Z,101778.41
2022-09-01T18:45:05.526Z,101784.84
2022-09-01T18:50:16.814Z,101795.78
2022-09-01T18:55:25.143Z,101795.84
2022-09-01T19:00:35.568Z,101794.19
2022-09-01T19:06:02.452Z,101798.78
2022-09-01T19:11:12.508Z,101793.53
2022-09-01T19:16:30.490Z,101800.69
2022-09-01T19:21:34.054Z,101801.63
2022-09-01T19:26:41.796Z,101797.19
2022-09-01T19:31:49.319Z,101814.19
2022-09-01T19:36:54.850Z,101811.47
2022-09-01T19:42:03.075Z,101803.44
2022-09-01T19:47:12.158Z,101807.00
2022-09-01T19:52:24.697Z,101810.50
2022-09-01T19:57:34.007Z,101814.91
2022-09-01T20:02:45.598Z,101817.50
2022-09-01T20:07:56.462Z,101818.34
2022-09-01T20:13:22.829Z,101809.34
2022-09-01T20:18:32.741Z,101811.06
2022-09-01T20:23:43.605Z,101810.09
2022-09-01T20:28:51.262Z,101812.69
2022-09-01T20:34:01.650Z,101809.84
2022-09-01T20:39:28.226Z,101808.88
2022-09-01T20:44:38.927Z,101809.66
2022-09-01T20:49:44.750Z,101806.88
2022-09-01T20:54:53.570Z,101807.59
2022-09-01T20:59:59.530Z,101802.13
2022-09-01T21:05:16.715Z,101809.06
2022-09-01T21:10:30.866Z,101808.06
2022-09-01T21:15:40.549Z,101811.47
2022-09-01T21:20:56.778Z,101811.34
2022-09-01T21:26:00.697Z,101804.09
2022-09-01T21:31:06.113Z,101798.63
2022-09-01T21:36:11.184Z,101794.88
2022-09-01T21:41:15.060Z,101795.69
2022-09-01T21:46:20.370Z,101788.47
2022-09-01T21:51:25.048Z,101785.63
2022-09-01T21:56:28.131Z,101775.66
2022-09-01T22:01:32.202Z,101785.41
2022-09-01T22:06:38.787Z,101778.13
2022-09-01T22:11:42.303Z,101778.00
2022-09-01T22:16:45.458Z,101781.41
2022-09-01T22:21:50.324Z,101774.16
2022-09-01T22:26:53.252Z,101771.31
2022-09-01T22:31:56.233Z,101766.72
2022-09-01T22:37:00.628Z,101767.38
2022-09-01T22:42:03.891Z,101760.19
2022-09-01T22:47:07.691Z,101756.47
2022-09-01T22:52:12.015Z,101758.19
2022-09-01T22:57:17.160Z,101758.09
2022-09-01T23:02:21.090Z,101750.00
2022-09-01T23:07:25.550Z,101748.97
2022-09-01T23:12:28.585Z,101741.56
2022-09-01T23:17:31.899Z,101741.47
2022-09-01T23:22:36.179Z,101732.50
2022-09-01T23:27:39.318Z,101727.09
2022-09-01T23:32:42.516Z,101726.13
2022-09-01T23:37:46.899Z,101726.88
2022-09-01T23:42:49.874Z,101718.84
2022-09-01T23:47:52.757Z,101715.13
2022-09-01T23:52:58.894Z,101721.22
2022-09-01T23:58:01.874Z,101711.28
